Portada
METAR-TAF:

METAR-TAF

Aeroports :

Eagle River Union Airport

Eagle River, Wisconsin, Estats Units d'Amèrica

latitud: 45-55-54N, longitud: 089-16-09W, altitud: 501 m

Observació

L'informe es va fer fa 13 minuts, a les 12:55 UTC
Vent calma
Temperatura 16°C
Humitat 94%
Pressió 1015 hPa
Visibilitat: 16.1 km
Cel clar

METAR: KEGV 201255Z AUTO 00000KT 10SM CLR 16/15 A2996 RMK AO2 T01600150

Hora: 08:08 (13:08 UTC)


TAF: manca

Observacions i pronòstics meteorològics de més de 4000 aeroports (METAR i TAF).

Les estacions disponibles són els punts grocs i vermells al mapa.

Posi el ratolí al punt desitjat per veure el nom de l'estació.

Feu clic per veure les observacions i els pronòstics meteorològics.

Per canviar el mapa: feu clic els botons verds amb una creu de color negre per apropar; al botó verd amb un guió per allunyar la imatge; o en les fletxes verdes per a mapes adjacents.


METAR-TAF: